x

La Perouse Bank (46206) Wave Buoy

6:00am - Fri 27th Feb 2015 All times are PST. -8 hours from GMT.

  • Sig Wave height 6.2ft
  • Peak Period 11s
  • Wind
    11mph, 13mph gusts
  • Sea Temp 50°f
  • 空気 Temp 48°f
  • Sea Pressure 1008.8mb
  • La Perouse Bank
  • La Perouse Bank

More Historic Weather Station data

Upgrade to MSW Pro to gain access to the past 30 days of data for over 8000 Wavebouys and Weather Stations around the globe.

Join Pro

Comparision Forecast

View Surf forecast
   
Fri 02/27 6:00am 6ft 11s 11 13 mph 1008.8mb 50f 48f
5:00am 5.5ft 11s 9 11 mph 1008.7mb 50f 48f
4:00am 5ft 12s 11 13 mph 1008.8mb 50f 48f
3:00am 5.5ft 12s 9 11 mph 1009.1mb 50f 48f
2:00am 5ft 10s 13 16 mph 1009.1mb 50f 49f
1:00am 5ft 11s 9 13 mph 1009.4mb 50f 48f
12:00am 5.5ft 11s 13 16 mph 1009.3mb 50f 47f
Thu 02/26 11:00pm 5ft 12s 13 18 mph 1009.6mb 50f 47f
10:00pm 6ft 11s 18 22 mph 1009.6mb 50f 48f
9:00pm 6.5ft 12s 16 20 mph 1010mb 50f 48f
8:00pm 7ft 12s 22 27 mph 1010.1mb 50f 48f
7:00pm 6ft 10s 20 27 mph 1010.6mb 50f 48f
6:00pm 6ft 10s 2 4 mph 1011.5mb 50f 50f
5:00pm 6ft 12s 7 9 mph 1012.4mb 50f 50f
4:00pm 6ft 11s 16 18 mph 1013.3mb 50f 49f
3:00pm 5.5ft 11s 18 22 mph 1014.3mb 50f 49f
2:00pm 5.5ft 10s 16 18 mph 1015.7mb 50f 49f
1:00pm 6ft 10s 16 20 mph 1016.7mb 50f 48f
12:00pm 5.5ft 11s 18 22 mph 1018.2mb 50f 48f
11:00am 5ft 11s 20 25 mph 1019mb 50f 48f
10:00am 5ft 12s 18 20 mph 1020.1mb 50f 48f
9:00am 4.5ft 11s 16 18 mph 1020.6mb 50f 47f
8:00am 4.5ft 11s 11 16 mph 1021.1mb 50f 48f
7:00am 4.5ft 11s 7 9 mph 1021.4mb 50f 47f
6:00am 4.5ft 10s 9 11 mph 1021.9mb 50f 47f
5:00am 4ft 12s 9 11 mph 1022.3mb 50f 47f
4:00am 4.5ft 12s 7
mph
1022.8mb 50f 47f
3:00am 4ft 12s 7 9 mph 1023.4mb 50f 47f
2:00am 3.5ft 12s 11 13 mph 1023.9mb 50f 47f
1:00am 3.5ft 11s 11 13 mph 1024.3mb 50f 48f
12:00am 3.5ft 11s 9
mph
1024.6mb 50f 48f
Wed 02/25 11:00pm 3.5ft 10s 9
mph
1024.9mb 50f 48f
10:00pm 4ft 12s 9
mph
1025.4mb 50f 47f
9:00pm 4ft 9s 9 11 mph 1025.2mb 50f 47f
8:00pm 4ft 10s 9 11 mph 1025.6mb 50f 47f
7:00pm 4ft 9s 9 11 mph 1025.8mb 50f 47f
6:00pm 4ft 10s 7 9 mph 1026.1mb 50f 47f
5:00pm 4.5ft 9s 4
mph
1026.7mb 50f 46f
4:00pm 4.5ft 9s  -  2 mph 1027.5mb 50f 47f
3:00pm 4.5ft 10s 4 7 mph 1027.8mb 50f 48f
2:00pm 4.5ft 11s 4 7 mph 1028.4mb 50f 48f
1:00pm 4.5ft 10s 4 7 mph 1029.1mb 50f 48f
12:00pm 4.5ft 11s 7 9 mph 1029.6mb 50f 48f
11:00am 5ft 11s 4 7 mph 1030.1mb 50f 47f
10:00am 5ft 10s 2 4 mph 1030mb 50f 47f
9:00am 5.5ft 11s 2 4 mph 1029.9mb 50f 48f
8:00am 5ft 10s 4 7 mph 1029.8mb 50f 48f
7:00am 5ft 10s 4 7 mph 1030mb 50f 48f
6:00am 5ft 11s 4 7 mph 1030.1mb 50f 47f
5:00am 5ft 12s 4 7 mph 1029.8mb 50f 47f
4:00am 5.5ft 12s 7 11 mph 1030.2mb 50f 47f
3:00am 5ft 10s 4 9 mph 1029.8mb 50f 47f
2:00am 5ft 11s 9 11 mph 1030mb 50f 47f
1:00am 5ft 12s 7 11 mph 1029.9mb 50f 47f
12:00am 5ft 10s 7 11 mph 1029.2mb 50f 47f
Tue 02/24 11:00pm 5ft 11s 11 13 mph 1029.1mb 50f 47f
10:00pm 5.5ft 11s 11 16 mph 1029.1mb 50f 49f
9:00pm 5ft 10s 13 16 mph 1028.9mb 50f 49f
8:00pm 5ft 12s 13 18 mph 1028.2mb 50f 50f
7:00pm 5ft 12s 13 16 mph 1028.3mb 50f 50f
6:00pm 5ft 12s 13 18 mph 1028mb 50f 49f
5:00pm 5ft 12s 16 20 mph 1028mb 51f 50f
4:00pm 5ft 12s 11 13 mph 1027.7mb 51f 49f
3:00pm 4.5ft 10s 7 9 mph 1028.2mb 50f 49f
2:00pm 5ft 12s 7
mph
1028.5mb 50f 48f
1:00pm 5ft 12s 7
mph
1028.9mb 50f 48f
12:00pm 5ft 12s 9 13 mph 1029.4mb 50f 50f
11:00am 5ft 12s 9 13 mph 1029.6mb 50f 49f
10:00am 5ft 12s 9 11 mph 1029.4mb 50f 50f
9:00am 5ft 12s 11 13 mph 1029.1mb 50f 50f
8:00am 5ft 13s 11 16 mph 1029.3mb 50f 49f
7:00am 6ft 12s 16 18 mph 1029mb 50f 49f
6:00am 5ft 13s 16 18 mph 1028.9mb 50f 49f
5:00am 5ft 14s 16 18 mph 1029mb 50f 49f
4:00am 6ft 14s 11 16 mph 1029.2mb 50f 49f
3:00am 5ft 12s 11 16 mph 1029.6mb 50f 49f
2:00am 5ft 14s 9 11 mph 1029.8mb 50f 48f
1:00am 5ft 13s 11 13 mph 1030.1mb 50f 48f
12:00am 5ft 13s 9 13 mph 1030.2mb 50f 48f
Mon 02/23 11:00pm 5ft 14s 11 13 mph 1030.2mb 50f 49f
10:00pm 5ft 14s 9 11 mph 1030.6mb 50f 49f
9:00pm 5ft 14s 11 13 mph 1030.7mb 50f 49f
8:00pm 5.5ft 14s 9 11 mph 1030.2mb 50f 49f
7:00pm 5ft 14s 7 9 mph 1030.1mb 51f 49f
6:00pm 5.5ft 14s 7 9 mph 1029.9mb 50f 49f
5:00pm 5ft 14s 2 4 mph 1029.6mb 51f 51f
4:00pm 5.5ft 14s 2 4 mph 1030.1mb 51f 51f